sensor_id;sensor_type;location;lat;lon;timestamp;P1;durP1;ratioP1;P2;durP2;ratioP2
75189;SDS011;69198;44.694;37.790;2023-07-30T00:00:57;7.63;;;1.63;;
75189;SDS011;69198;44.694;37.790;2023-07-30T00:01:58;6.18;;;1.55;;
75189;SDS011;69198;44.694;37.790;2023-07-30T00:03:00;5.20;;;1.65;;
75189;SDS011;69198;44.694;37.790;2023-07-30T00:04:01;7.43;;;1.70;;
75189;SDS011;69198;44.694;37.790;2023-07-30T00:05:02;4.93;;;1.42;;
75189;SDS011;69198;44.694;37.790;2023-07-30T00:06:03;6.45;;;2.35;;
75189;SDS011;69198;44.694;37.790;2023-07-30T00:07:04;6.38;;;1.60;;
75189;SDS011;69198;44.694;37.790;2023-07-30T00:08:05;5.72;;;1.77;;
75189;SDS011;69198;44.694;37.790;2023-07-30T00:09:07;6.10;;;1.80;;
75189;SDS011;69198;44.694;37.790;2023-07-30T00:10:08;6.72;;;2.05;;
75189;SDS011;69198;44.694;37.790;2023-07-30T00:11:09;5.80;;;1.80;;
75189;SDS011;69198;44.694;37.790;2023-07-30T00:12:10;6.25;;;1.50;;
75189;SDS011;69198;44.694;37.790;2023-07-30T00:13:11;5.25;;;1.50;;
75189;SDS011;69198;44.694;37.790;2023-07-30T00:14:12;6.18;;;1.50;;
75189;SDS011;69198;44.694;37.790;2023-07-30T00:15:13;5.65;;;1.77;;
75189;SDS011;69198;44.694;37.790;2023-07-30T00:16:14;6.80;;;1.80;;
75189;SDS011;69198;44.694;37.790;2023-07-30T00:17:15;5.30;;;1.70;;
75189;SDS011;69198;44.694;37.790;2023-07-30T00:18:16;5.70;;;1.57;;
75189;SDS011;69198;44.694;37.790;2023-07-30T00:19:17;10.55;;;1.80;;
75189;SDS011;69198;44.694;37.790;2023-07-30T00:20:18;6.70;;;2.08;;
75189;SDS011;69198;44.694;37.790;2023-07-30T00:21:20;8.27;;;2.40;;
75189;SDS011;69198;44.694;37.790;2023-07-30T00:22:21;7.25;;;2.10;;
75189;SDS011;69198;44.694;37.790;2023-07-30T00:23:22;4.82;;;1.67;;
75189;SDS011;69198;44.694;37.790;2023-07-30T00:24:23;8.60;;;1.83;;
75189;SDS011;69198;44.694;37.790;2023-07-30T00:25:24;6.45;;;1.60;;
75189;SDS011;69198;44.694;37.790;2023-07-30T00:26:25;7.10;;;1.70;;
75189;SDS011;69198;44.694;37.790;2023-07-30T00:27:26;7.23;;;2.50;;
75189;SDS011;69198;44.694;37.790;2023-07-30T00:28:27;7.07;;;2.60;;
75189;SDS011;69198;44.694;37.790;2023-07-30T00:29:28;6.63;;;2.33;;
75189;SDS011;69198;44.694;37.790;2023-07-30T00:30:29;6.30;;;2.40;;
75189;SDS011;69198;44.694;37.790;2023-07-30T00:31:30;9.25;;;3.20;;
75189;SDS011;69198;44.694;37.790;2023-07-30T00:32:32;7.57;;;2.60;;
75189;SDS011;69198;44.694;37.790;2023-07-30T00:33:33;7.30;;;2.53;;
75189;SDS011;69198;44.694;37.790;2023-07-30T00:34:37;8.40;;;2.80;;
75189;SDS011;69198;44.694;37.790;2023-07-30T00:35:38;7.70;;;2.87;;
75189;SDS011;69198;44.694;37.790;2023-07-30T00:36:39;10.55;;;2.72;;
75189;SDS011;69198;44.694;37.790;2023-07-30T00:37:40;7.63;;;3.03;;
75189;SDS011;69198;44.694;37.790;2023-07-30T00:38:41;10.27;;;3.00;;
75189;SDS011;69198;44.694;37.790;2023-07-30T00:39:43;7.43;;;2.75;;
75189;SDS011;69198;44.694;37.790;2023-07-30T00:40:44;9.68;;;3.00;;
75189;SDS011;69198;44.694;37.790;2023-07-30T00:41:45;7.45;;;2.75;;
75189;SDS011;69198;44.694;37.790;2023-07-30T00:42:46;8.70;;;2.63;;
75189;SDS011;69198;44.694;37.790;2023-07-30T00:43:47;9.82;;;2.72;;
75189;SDS011;69198;44.694;37.790;2023-07-30T00:44:49;7.03;;;2.60;;
75189;SDS011;69198;44.694;37.790;2023-07-30T00:45:51;7.40;;;2.67;;
75189;SDS011;69198;44.694;37.790;2023-07-30T00:46:52;6.63;;;2.28;;
75189;SDS011;69198;44.694;37.790;2023-07-30T00:47:53;7.70;;;2.70;;
75189;SDS011;69198;44.694;37.790;2023-07-30T00:48:54;8.60;;;2.60;;
75189;SDS011;69198;44.694;37.790;2023-07-30T00:49:56;8.07;;;2.58;;
75189;SDS011;69198;44.694;37.790;2023-07-30T00:50:58;7.32;;;2.40;;
75189;SDS011;69198;44.694;37.790;2023-07-30T00:52:00;11.18;;;2.80;;
75189;SDS011;69198;44.694;37.790;2023-07-30T00:53:01;11.48;;;2.65;;
75189;SDS011;69198;44.694;37.790;2023-07-30T00:54:02;11.07;;;2.70;;
75189;SDS011;69198;44.694;37.790;2023-07-30T00:55:04;8.33;;;2.57;;
75189;SDS011;69198;44.694;37.790;2023-07-30T00:56:07;9.20;;;2.70;;
75189;SDS011;69198;44.694;37.790;2023-07-30T00:57:09;8.20;;;2.30;;
75189;SDS011;69198;44.694;37.790;2023-07-30T00:58:11;7.10;;;2.30;;
75189;SDS011;69198;44.694;37.790;2023-07-30T00:59:13;7.63;;;2.30;;
75189;SDS011;69198;44.694;37.790;2023-07-30T01:00:14;8.07;;;2.38;;
75189;SDS011;69198;44.694;37.790;2023-07-30T01:01:16;6.80;;;2.05;;
75189;SDS011;69198;44.694;37.790;2023-07-30T01:02:18;6.65;;;2.08;;
75189;SDS011;69198;44.694;37.790;2023-07-30T01:03:18;5.75;;;1.58;;
75189;SDS011;69198;44.694;37.790;2023-07-30T01:04:20;5.70;;;1.90;;
75189;SDS011;69198;44.694;37.790;2023-07-30T01:05:21;6.70;;;1.87;;
75189;SDS011;69198;44.694;37.790;2023-07-30T01:06:23;6.90;;;1.90;;
75189;SDS011;69198;44.694;37.790;2023-07-30T01:07:24;7.10;;;2.40;;
75189;SDS011;69198;44.694;37.790;2023-07-30T01:08:25;5.95;;;2.00;;
75189;SDS011;69198;44.694;37.790;2023-07-30T01:09:26;7.22;;;1.98;;
75189;SDS011;69198;44.694;37.790;2023-07-30T01:10:27;9.00;;;2.50;;
75189;SDS011;69198;44.694;37.790;2023-07-30T01:11:31;7.47;;;2.42;;
75189;SDS011;69198;44.694;37.790;2023-07-30T01:12:32;6.40;;;2.33;;
75189;SDS011;69198;44.694;37.790;2023-07-30T01:13:35;8.25;;;2.60;;
75189;SDS011;69198;44.694;37.790;2023-07-30T01:14:36;7.22;;;2.60;;
75189;SDS011;69198;44.694;37.790;2023-07-30T01:15:38;10.87;;;2.60;;
75189;SDS011;69198;44.694;37.790;2023-07-30T01:16:40;8.23;;;2.22;;
75189;SDS011;69198;44.694;37.790;2023-07-30T01:17:42;9.02;;;2.33;;
75189;SDS011;69198;44.694;37.790;2023-07-30T01:18:43;8.18;;;2.10;;
75189;SDS011;69198;44.694;37.790;2023-07-30T01:19:44;8.05;;;2.60;;
75189;SDS011;69198;44.694;37.790;2023-07-30T01:20:45;7.55;;;2.90;;
75189;SDS011;69198;44.694;37.790;2023-07-30T01:21:46;8.02;;;3.20;;
75189;SDS011;69198;44.694;37.790;2023-07-30T01:22:47;8.85;;;3.60;;
75189;SDS011;69198;44.694;37.790;2023-07-30T01:23:48;9.95;;;4.05;;
75189;SDS011;69198;44.694;37.790;2023-07-30T01:24:49;8.97;;;3.47;;
75189;SDS011;69198;44.694;37.790;2023-07-30T01:25:59;11.73;;;4.00;;
75189;SDS011;69198;44.694;37.790;2023-07-30T01:27:05;11.00;;;3.45;;
75189;SDS011;69198;44.694;37.790;2023-07-30T01:28:08;12.50;;;3.63;;
75189;SDS011;69198;44.694;37.790;2023-07-30T01:29:18;10.05;;;3.33;;
75189;SDS011;69198;44.694;37.790;2023-07-30T01:30:27;8.82;;;3.20;;
75189;SDS011;69198;44.694;37.790;2023-07-30T01:31:33;10.23;;;3.17;;
75189;SDS011;69198;44.694;37.790;2023-07-30T01:32:36;11.55;;;3.40;;
75189;SDS011;69198;44.694;37.790;2023-07-30T01:33:38;8.60;;;3.17;;
75189;SDS011;69198;44.694;37.790;2023-07-30T01:34:41;9.30;;;2.90;;
75189;SDS011;69198;44.694;37.790;2023-07-30T01:35:44;8.57;;;3.30;;
75189;SDS011;69198;44.694;37.790;2023-07-30T01:36:46;9.52;;;3.50;;
75189;SDS011;69198;44.694;37.790;2023-07-30T01:37:49;10.43;;;3.67;;
75189;SDS011;69198;44.694;37.790;2023-07-30T01:38:51;8.48;;;3.60;;
75189;SDS011;69198;44.694;37.790;2023-07-30T01:39:53;7.45;;;3.17;;
75189;SDS011;69198;44.694;37.790;2023-07-30T01:40:56;7.35;;;3.05;;
75189;SDS011;69198;44.694;37.790;2023-07-30T01:41:57;8.65;;;2.95;;
75189;SDS011;69198;44.694;37.790;2023-07-30T01:42:58;7.50;;;2.53;;
75189;SDS011;69198;44.694;37.790;2023-07-30T01:44:00;12.93;;;3.00;;
75189;SDS011;69198;44.694;37.790;2023-07-30T01:45:01;8.38;;;2.65;;
75189;SDS011;69198;44.694;37.790;2023-07-30T01:46:02;8.10;;;2.60;;
75189;SDS011;69198;44.694;37.790;2023-07-30T01:47:03;7.10;;;2.60;;
75189;SDS011;69198;44.694;37.790;2023-07-30T01:48:04;7.40;;;2.47;;
75189;SDS011;69198;44.694;37.790;2023-07-30T01:49:05;8.82;;;2.70;;
75189;SDS011;69198;44.694;37.790;2023-07-30T01:50:06;8.70;;;2.50;;
75189;SDS011;69198;44.694;37.790;2023-07-30T01:51:07;8.63;;;2.80;;
75189;SDS011;69198;44.694;37.790;2023-07-30T01:52:08;8.55;;;2.50;;
75189;SDS011;69198;44.694;37.790;2023-07-30T01:53:09;9.23;;;2.33;;
75189;SDS011;69198;44.694;37.790;2023-07-30T01:54:10;9.30;;;2.70;;
75189;SDS011;69198;44.694;37.790;2023-07-30T01:55:11;8.13;;;2.33;;
75189;SDS011;69198;44.694;37.790;2023-07-30T01:56:12;7.03;;;2.35;;
75189;SDS011;69198;44.694;37.790;2023-07-30T01:57:13;8.32;;;2.45;;
75189;SDS011;69198;44.694;37.790;2023-07-30T01:58:14;7.75;;;2.70;;
75189;SDS011;69198;44.694;37.790;2023-07-30T01:59:15;8.82;;;2.60;;
75189;SDS011;69198;44.694;37.790;2023-07-30T02:00:16;9.05;;;2.53;;
75189;SDS011;69198;44.694;37.790;2023-07-30T02:01:17;8.60;;;2.72;;
75189;SDS011;69198;44.694;37.790;2023-07-30T02:02:18;9.37;;;2.33;;
75189;SDS011;69198;44.694;37.790;2023-07-30T02:03:19;6.93;;;2.35;;
75189;SDS011;69198;44.694;37.790;2023-07-30T02:04:20;10.35;;;2.58;;
75189;SDS011;69198;44.694;37.790;2023-07-30T02:05:21;9.13;;;2.38;;
75189;SDS011;69198;44.694;37.790;2023-07-30T02:06:22;11.00;;;2.47;;
75189;SDS011;69198;44.694;37.790;2023-07-30T02:07:23;9.15;;;2.95;;
75189;SDS011;69198;44.694;37.790;2023-07-30T02:08:24;6.88;;;2.40;;
75189;SDS011;69198;44.694;37.790;2023-07-30T02:09:25;8.63;;;2.80;;
75189;SDS011;69198;44.694;37.790;2023-07-30T02:10:26;9.90;;;2.70;;
75189;SDS011;69198;44.694;37.790;2023-07-30T02:11:28;8.23;;;2.30;;
75189;SDS011;69198;44.694;37.790;2023-07-30T02:12:29;7.32;;;2.30;;
75189;SDS011;69198;44.694;37.790;2023-07-30T02:13:30;10.45;;;2.70;;
75189;SDS011;69198;44.694;37.790;2023-07-30T02:14:31;9.40;;;2.30;;
75189;SDS011;69198;44.694;37.790;2023-07-30T02:15:39;9.02;;;2.10;;
75189;SDS011;69198;44.694;37.790;2023-07-30T02:16:41;7.90;;;2.58;;
75189;SDS011;69198;44.694;37.790;2023-07-30T02:17:42;9.60;;;2.63;;
75189;SDS011;69198;44.694;37.790;2023-07-30T02:18:44;6.68;;;2.15;;
75189;SDS011;69198;44.694;37.790;2023-07-30T02:19:45;8.23;;;2.60;;
75189;SDS011;69198;44.694;37.790;2023-07-30T02:20:47;10.43;;;2.72;;
75189;SDS011;69198;44.694;37.790;2023-07-30T02:21:48;8.27;;;2.63;;
75189;SDS011;69198;44.694;37.790;2023-07-30T02:22:49;8.73;;;2.42;;
75189;SDS011;69198;44.694;37.790;2023-07-30T02:23:50;7.60;;;2.55;;
75189;SDS011;69198;44.694;37.790;2023-07-30T02:24:51;9.00;;;2.58;;
75189;SDS011;69198;44.694;37.790;2023-07-30T02:25:52;8.88;;;2.40;;
75189;SDS011;69198;44.694;37.790;2023-07-30T02:26:53;6.87;;;2.33;;
75189;SDS011;69198;44.694;37.790;2023-07-30T02:27:54;8.43;;;2.53;;
75189;SDS011;69198;44.694;37.790;2023-07-30T02:28:55;8.90;;;2.47;;
75189;SDS011;69198;44.694;37.790;2023-07-30T02:29:56;12.23;;;2.58;;
75189;SDS011;69198;44.694;37.790;2023-07-30T02:30:57;7.80;;;2.40;;
75189;SDS011;69198;44.694;37.790;2023-07-30T02:31:58;9.55;;;2.67;;
75189;SDS011;69198;44.694;37.790;2023-07-30T02:33:00;8.70;;;2.50;;
75189;SDS011;69198;44.694;37.790;2023-07-30T02:34:01;9.32;;;2.40;;
75189;SDS011;69198;44.694;37.790;2023-07-30T02:35:02;10.07;;;2.78;;
75189;SDS011;69198;44.694;37.790;2023-07-30T02:36:04;9.03;;;2.40;;
75189;SDS011;69198;44.694;37.790;2023-07-30T02:37:05;9.38;;;2.42;;
75189;SDS011;69198;44.694;37.790;2023-07-30T02:38:06;8.02;;;2.65;;
75189;SDS011;69198;44.694;37.790;2023-07-30T02:39:07;7.35;;;2.55;;
75189;SDS011;69198;44.694;37.790;2023-07-30T02:40:08;8.13;;;2.20;;
75189;SDS011;69198;44.694;37.790;2023-07-30T02:41:09;6.30;;;2.20;;
75189;SDS011;69198;44.694;37.790;2023-07-30T02:42:10;7.93;;;2.65;;
75189;SDS011;69198;44.694;37.790;2023-07-30T02:43:11;10.73;;;2.60;;
75189;SDS011;69198;44.694;37.790;2023-07-30T02:44:12;9.57;;;2.60;;
75189;SDS011;69198;44.694;37.790;2023-07-30T02:45:14;8.57;;;2.58;;
75189;SDS011;69198;44.694;37.790;2023-07-30T02:46:15;9.77;;;2.50;;
75189;SDS011;69198;44.694;37.790;2023-07-30T02:47:16;9.90;;;2.50;;
75189;SDS011;69198;44.694;37.790;2023-07-30T02:48:17;7.70;;;2.75;;
75189;SDS011;69198;44.694;37.790;2023-07-30T02:49:18;8.23;;;2.55;;
75189;SDS011;69198;44.694;37.790;2023-07-30T02:50:19;12.65;;;2.80;;
75189;SDS011;69198;44.694;37.790;2023-07-30T02:51:20;8.27;;;2.25;;
75189;SDS011;69198;44.694;37.790;2023-07-30T02:52:21;8.75;;;2.53;;
75189;SDS011;69198;44.694;37.790;2023-07-30T02:53:22;8.77;;;2.30;;
75189;SDS011;69198;44.694;37.790;2023-07-30T02:54:23;7.85;;;2.47;;
75189;SDS011;69198;44.694;37.790;2023-07-30T02:55:24;7.82;;;2.95;;
75189;SDS011;69198;44.694;37.790;2023-07-30T02:56:25;10.52;;;2.25;;
75189;SDS011;69198;44.694;37.790;2023-07-30T02:57:26;9.75;;;2.25;;
75189;SDS011;69198;44.694;37.790;2023-07-30T02:58:27;10.48;;;2.30;;
75189;SDS011;69198;44.694;37.790;2023-07-30T02:59:28;9.60;;;2.10;;
75189;SDS011;69198;44.694;37.790;2023-07-30T03:00:29;5.45;;;1.80;;
75189;SDS011;69198;44.694;37.790;2023-07-30T03:01:30;7.60;;;1.90;;
75189;SDS011;69198;44.694;37.790;2023-07-30T03:02:31;9.63;;;2.10;;
75189;SDS011;69198;44.694;37.790;2023-07-30T03:03:32;7.10;;;2.25;;
75189;SDS011;69198;44.694;37.790;2023-07-30T03:04:34;8.52;;;2.03;;
75189;SDS011;69198;44.694;37.790;2023-07-30T03:05:36;10.07;;;2.20;;
75189;SDS011;69198;44.694;37.790;2023-07-30T03:06:37;8.13;;;2.10;;
75189;SDS011;69198;44.694;37.790;2023-07-30T03:07:38;7.75;;;2.25;;
75189;SDS011;69198;44.694;37.790;2023-07-30T03:08:39;8.52;;;1.90;;
75189;SDS011;69198;44.694;37.790;2023-07-30T03:09:40;8.33;;;1.87;;
75189;SDS011;69198;44.694;37.790;2023-07-30T03:10:41;8.97;;;2.43;;
75189;SDS011;69198;44.694;37.790;2023-07-30T03:11:42;5.72;;;2.00;;
75189;SDS011;69198;44.694;37.790;2023-07-30T03:12:43;8.32;;;2.05;;
75189;SDS011;69198;44.694;37.790;2023-07-30T03:13:44;7.05;;;1.85;;
75189;SDS011;69198;44.694;37.790;2023-07-30T03:14:45;9.40;;;2.20;;
75189;SDS011;69198;44.694;37.790;2023-07-30T03:15:46;9.13;;;2.10;;
75189;SDS011;69198;44.694;37.790;2023-07-30T03:16:47;7.80;;;2.30;;
75189;SDS011;69198;44.694;37.790;2023-07-30T03:17:49;8.07;;;2.03;;
75189;SDS011;69198;44.694;37.790;2023-07-30T03:18:50;7.57;;;2.03;;
75189;SDS011;69198;44.694;37.790;2023-07-30T03:19:51;7.90;;;2.15;;
75189;SDS011;69198;44.694;37.790;2023-07-30T03:20:57;6.68;;;2.08;;
75189;SDS011;69198;44.694;37.790;2023-07-30T03:21:59;7.07;;;2.00;;
75189;SDS011;69198;44.694;37.790;2023-07-30T03:23:00;7.07;;;1.85;;
75189;SDS011;69198;44.694;37.790;2023-07-30T03:24:01;7.45;;;1.95;;
75189;SDS011;69198;44.694;37.790;2023-07-30T03:25:03;7.55;;;2.30;;
75189;SDS011;69198;44.694;37.790;2023-07-30T03:26:04;7.18;;;1.75;;
75189;SDS011;69198;44.694;37.790;2023-07-30T03:27:06;7.70;;;1.88;;
75189;SDS011;69198;44.694;37.790;2023-07-30T03:28:07;8.68;;;1.95;;
75189;SDS011;69198;44.694;37.790;2023-07-30T03:29:08;7.77;;;2.07;;
75189;SDS011;69198;44.694;37.790;2023-07-30T03:30:11;7.03;;;2.08;;
75189;SDS011;69198;44.694;37.790;2023-07-30T03:31:13;6.40;;;2.30;;
75189;SDS011;69198;44.694;37.790;2023-07-30T03:32:14;7.88;;;2.40;;
75189;SDS011;69198;44.694;37.790;2023-07-30T03:33:24;8.40;;;2.40;;
75189;SDS011;69198;44.694;37.790;2023-07-30T03:34:25;8.50;;;3.03;;
75189;SDS011;69198;44.694;37.790;2023-07-30T03:35:26;10.80;;;3.00;;
75189;SDS011;69198;44.694;37.790;2023-07-30T03:36:27;9.30;;;2.90;;
75189;SDS011;69198;44.694;37.790;2023-07-30T03:37:28;10.70;;;3.13;;
75189;SDS011;69198;44.694;37.790;2023-07-30T03:38:29;8.13;;;3.22;;
75189;SDS011;69198;44.694;37.790;2023-07-30T03:39:30;7.32;;;2.72;;
75189;SDS011;69198;44.694;37.790;2023-07-30T03:40:31;9.98;;;2.60;;
75189;SDS011;69198;44.694;37.790;2023-07-30T03:41:32;6.65;;;2.83;;
75189;SDS011;69198;44.694;37.790;2023-07-30T03:42:35;5.88;;;2.10;;
75189;SDS011;69198;44.694;37.790;2023-07-30T03:43:37;6.55;;;2.53;;
75189;SDS011;69198;44.694;37.790;2023-07-30T03:44:39;8.95;;;2.83;;
75189;SDS011;69198;44.694;37.790;2023-07-30T03:45:40;9.57;;;2.60;;
75189;SDS011;69198;44.694;37.790;2023-07-30T03:46:41;6.53;;;2.17;;
75189;SDS011;69198;44.694;37.790;2023-07-30T03:47:44;8.00;;;2.60;;
75189;SDS011;69198;44.694;37.790;2023-07-30T03:48:45;6.95;;;2.28;;
75189;SDS011;69198;44.694;37.790;2023-07-30T03:49:46;6.65;;;2.63;;
75189;SDS011;69198;44.694;37.790;2023-07-30T03:50:47;6.65;;;2.60;;
75189;SDS011;69198;44.694;37.790;2023-07-30T03:51:48;7.65;;;2.83;;
75189;SDS011;69198;44.694;37.790;2023-07-30T03:52:49;7.05;;;2.53;;
75189;SDS011;69198;44.694;37.790;2023-07-30T03:53:50;7.65;;;2.70;;
75189;SDS011;69198;44.694;37.790;2023-07-30T03:54:51;7.97;;;2.65;;
75189;SDS011;69198;44.694;37.790;2023-07-30T03:55:52;6.87;;;2.23;;
75189;SDS011;69198;44.694;37.790;2023-07-30T03:56:54;8.63;;;2.45;;
75189;SDS011;69198;44.694;37.790;2023-07-30T03:57:55;8.52;;;2.90;;
75189;SDS011;69198;44.694;37.790;2023-07-30T03:58:56;5.97;;;2.40;;
75189;SDS011;69198;44.694;37.790;2023-07-30T03:59:58;9.07;;;2.40;;
75189;SDS011;69198;44.694;37.790;2023-07-30T04:01:00;10.52;;;2.45;;
75189;SDS011;69198;44.694;37.790;2023-07-30T04:02:02;9.40;;;2.53;;
75189;SDS011;69198;44.694;37.790;2023-07-30T04:03:04;7.85;;;2.33;;
75189;SDS011;69198;44.694;37.790;2023-07-30T04:04:06;8.13;;;2.30;;
75189;SDS011;69198;44.694;37.790;2023-07-30T04:05:07;7.03;;;2.37;;
75189;SDS011;69198;44.694;37.790;2023-07-30T04:06:08;5.85;;;2.20;;
75189;SDS011;69198;44.694;37.790;2023-07-30T04:07:09;7.85;;;2.60;;
75189;SDS011;69198;44.694;37.790;2023-07-30T04:08:10;10.25;;;2.35;;
75189;SDS011;69198;44.694;37.790;2023-07-30T04:09:11;8.15;;;2.63;;
75189;SDS011;69198;44.694;37.790;2023-07-30T04:10:15;6.85;;;2.40;;
75189;SDS011;69198;44.694;37.790;2023-07-30T04:11:16;7.90;;;2.55;;
75189;SDS011;69198;44.694;37.790;2023-07-30T04:12:17;6.70;;;2.95;;
75189;SDS011;69198;44.694;37.790;2023-07-30T04:13:19;8.95;;;3.08;;
75189;SDS011;69198;44.694;37.790;2023-07-30T04:14:23;7.47;;;2.95;;
75189;SDS011;69198;44.694;37.790;2023-07-30T04:15:24;8.33;;;2.60;;
75189;SDS011;69198;44.694;37.790;2023-07-30T04:16:25;7.32;;;2.25;;
75189;SDS011;69198;44.694;37.790;2023-07-30T04:17:27;6.85;;;2.33;;
75189;SDS011;69198;44.694;37.790;2023-07-30T04:18:27;8.07;;;2.50;;
75189;SDS011;69198;44.694;37.790;2023-07-30T04:19:29;7.55;;;2.63;;
75189;SDS011;69198;44.694;37.790;2023-07-30T04:20:29;7.15;;;2.50;;
75189;SDS011;69198;44.694;37.790;2023-07-30T04:21:31;7.30;;;2.10;;
75189;SDS011;69198;44.694;37.790;2023-07-30T04:22:32;7.18;;;2.15;;
75189;SDS011;69198;44.694;37.790;2023-07-30T04:23:33;8.18;;;2.25;;
75189;SDS011;69198;44.694;37.790;2023-07-30T04:24:33;8.37;;;2.80;;
75189;SDS011;69198;44.694;37.790;2023-07-30T04:25:35;9.00;;;2.55;;
75189;SDS011;69198;44.694;37.790;2023-07-30T04:26:35;6.88;;;2.40;;
75189;SDS011;69198;44.694;37.790;2023-07-30T04:27:37;6.57;;;1.83;;
75189;SDS011;69198;44.694;37.790;2023-07-30T04:28:38;6.25;;;1.92;;
75189;SDS011;69198;44.694;37.790;2023-07-30T04:29:41;6.57;;;1.73;;
75189;SDS011;69198;44.694;37.790;2023-07-30T04:30:42;7.53;;;2.20;;
75189;SDS011;69198;44.694;37.790;2023-07-30T04:31:45;6.60;;;2.22;;
75189;SDS011;69198;44.694;37.790;2023-07-30T04:32:46;7.18;;;2.17;;
75189;SDS011;69198;44.694;37.790;2023-07-30T04:33:48;11.05;;;1.88;;
75189;SDS011;69198;44.694;37.790;2023-07-30T04:34:49;4.83;;;1.50;;
75189;SDS011;69198;44.694;37.790;2023-07-30T04:35:50;5.35;;;1.95;;
75189;SDS011;69198;44.694;37.790;2023-07-30T04:36:51;6.50;;;1.60;;
75189;SDS011;69198;44.694;37.790;2023-07-30T04:37:52;5.38;;;1.55;;
75189;SDS011;69198;44.694;37.790;2023-07-30T04:38:54;6.93;;;2.47;;
75189;SDS011;69198;44.694;37.790;2023-07-30T04:40:00;6.43;;;2.05;;
75189;SDS011;69198;44.694;37.790;2023-07-30T04:41:04;5.38;;;1.58;;
75189;SDS011;69198;44.694;37.790;2023-07-30T04:42:10;7.45;;;2.00;;
75189;SDS011;69198;44.694;37.790;2023-07-30T04:43:13;6.30;;;1.50;;
75189;SDS011;69198;44.694;37.790;2023-07-30T04:44:18;6.57;;;1.63;;
75189;SDS011;69198;44.694;37.790;2023-07-30T04:45:19;8.30;;;2.22;;
75189;SDS011;69198;44.694;37.790;2023-07-30T04:46:22;5.93;;;1.85;;
75189;SDS011;69198;44.694;37.790;2023-07-30T04:47:24;6.38;;;1.98;;
75189;SDS011;69198;44.694;37.790;2023-07-30T04:48:25;7.05;;;2.08;;
75189;SDS011;69198;44.694;37.790;2023-07-30T04:49:27;5.03;;;1.70;;
75189;SDS011;69198;44.694;37.790;2023-07-30T04:50:29;6.18;;;2.00;;
75189;SDS011;69198;44.694;37.790;2023-07-30T04:51:30;7.53;;;1.85;;
75189;SDS011;69198;44.694;37.790;2023-07-30T04:52:31;4.68;;;1.42;;
75189;SDS011;69198;44.694;37.790;2023-07-30T04:53:32;6.57;;;1.80;;
75189;SDS011;69198;44.694;37.790;2023-07-30T04:54:33;7.07;;;2.00;;
75189;SDS011;69198;44.694;37.790;2023-07-30T04:55:36;5.82;;;1.85;;
75189;SDS011;69198;44.694;37.790;2023-07-30T04:56:37;5.57;;;1.77;;
75189;SDS011;69198;44.694;37.790;2023-07-30T04:57:38;4.90;;;2.10;;
75189;SDS011;69198;44.694;37.790;2023-07-30T04:58:40;6.15;;;1.92;;
75189;SDS011;69198;44.694;37.790;2023-07-30T04:59:41;6.95;;;1.77;;
75189;SDS011;69198;44.694;37.790;2023-07-30T05:00:43;6.70;;;1.95;;
75189;SDS011;69198;44.694;37.790;2023-07-30T05:01:44;5.82;;;1.65;;
75189;SDS011;69198;44.694;37.790;2023-07-30T05:02:45;5.18;;;2.05;;
75189;SDS011;69198;44.694;37.790;2023-07-30T05:03:46;6.72;;;1.80;;
75189;SDS011;69198;44.694;37.790;2023-07-30T05:04:47;5.67;;;2.10;;
75189;SDS011;69198;44.694;37.790;2023-07-30T05:05:48;7.03;;;2.25;;
75189;SDS011;69198;44.694;37.790;2023-07-30T05:06:50;6.68;;;2.03;;
75189;SDS011;69198;44.694;37.790;2023-07-30T05:07:51;7.60;;;2.22;;
75189;SDS011;69198;44.694;37.790;2023-07-30T05:08:52;5.53;;;2.20;;
75189;SDS011;69198;44.694;37.790;2023-07-30T05:09:53;7.72;;;2.15;;
75189;SDS011;69198;44.694;37.790;2023-07-30T05:10:54;5.40;;;2.17;;
75189;SDS011;69198;44.694;37.790;2023-07-30T05:11:55;6.25;;;2.00;;
75189;SDS011;69198;44.694;37.790;2023-07-30T05:12:56;6.13;;;2.00;;
75189;SDS011;69198;44.694;37.790;2023-07-30T05:13:58;5.50;;;2.13;;
75189;SDS011;69198;44.694;37.790;2023-07-30T05:14:59;8.02;;;1.90;;
75189;SDS011;69198;44.694;37.790;2023-07-30T05:16:00;5.53;;;1.70;;
75189;SDS011;69198;44.694;37.790;2023-07-30T05:17:02;6.82;;;1.80;;
75189;SDS011;69198;44.694;37.790;2023-07-30T05:18:03;7.10;;;1.90;;
75189;SDS011;69198;44.694;37.790;2023-07-30T05:19:04;6.45;;;1.70;;
75189;SDS011;69198;44.694;37.790;2023-07-30T05:20:05;4.50;;;1.80;;
75189;SDS011;69198;44.694;37.790;2023-07-30T05:21:07;5.05;;;1.52;;
75189;SDS011;69198;44.694;37.790;2023-07-30T05:22:08;5.00;;;1.63;;
75189;SDS011;69198;44.694;37.790;2023-07-30T05:23:09;4.45;;;1.30;;
75189;SDS011;69198;44.694;37.790;2023-07-30T05:24:10;4.30;;;1.38;;
75189;SDS011;69198;44.694;37.790;2023-07-30T05:25:11;4.60;;;1.40;;
75189;SDS011;69198;44.694;37.790;2023-07-30T05:26:12;6.05;;;1.20;;
75189;SDS011;69198;44.694;37.790;2023-07-30T05:27:13;4.97;;;1.50;;
75189;SDS011;69198;44.694;37.790;2023-07-30T05:28:14;5.43;;;1.70;;
75189;SDS011;69198;44.694;37.790;2023-07-30T05:29:15;4.63;;;1.60;;
75189;SDS011;69198;44.694;37.790;2023-07-30T05:30:16;5.07;;;1.40;;
75189;SDS011;69198;44.694;37.790;2023-07-30T05:31:17;5.88;;;1.80;;
75189;SDS011;69198;44.694;37.790;2023-07-30T05:32:18;5.68;;;1.58;;
75189;SDS011;69198;44.694;37.790;2023-07-30T05:33:20;5.28;;;1.77;;
75189;SDS011;69198;44.694;37.790;2023-07-30T05:34:20;5.60;;;1.52;;
75189;SDS011;69198;44.694;37.790;2023-07-30T05:35:21;4.80;;;1.50;;
75189;SDS011;69198;44.694;37.790;2023-07-30T05:36:22;5.45;;;1.63;;
75189;SDS011;69198;44.694;37.790;2023-07-30T05:37:23;7.45;;;1.67;;
75189;SDS011;69198;44.694;37.790;2023-07-30T05:38:24;6.07;;;2.00;;
75189;SDS011;69198;44.694;37.790;2023-07-30T05:39:25;5.45;;;1.67;;
75189;SDS011;69198;44.694;37.790;2023-07-30T05:40:26;5.15;;;1.70;;
75189;SDS011;69198;44.694;37.790;2023-07-30T05:41:27;4.55;;;1.50;;
75189;SDS011;69198;44.694;37.790;2023-07-30T05:42:28;6.35;;;1.60;;
75189;SDS011;69198;44.694;37.790;2023-07-30T05:43:29;4.93;;;1.70;;
75189;SDS011;69198;44.694;37.790;2023-07-30T05:44:30;4.70;;;1.58;;
75189;SDS011;69198;44.694;37.790;2023-07-30T05:45:33;5.55;;;1.50;;
75189;SDS011;69198;44.694;37.790;2023-07-30T05:46:34;4.90;;;1.80;;
75189;SDS011;69198;44.694;37.790;2023-07-30T05:47:35;5.43;;;1.67;;
75189;SDS011;69198;44.694;37.790;2023-07-30T05:48:36;5.35;;;1.75;;
75189;SDS011;69198;44.694;37.790;2023-07-30T05:49:37;6.40;;;2.08;;
75189;SDS011;69198;44.694;37.790;2023-07-30T05:50:38;6.18;;;1.70;;
75189;SDS011;69198;44.694;37.790;2023-07-30T05:51:39;5.13;;;1.60;;
75189;SDS011;69198;44.694;37.790;2023-07-30T05:52:40;5.00;;;1.70;;
75189;SDS011;69198;44.694;37.790;2023-07-30T05:53:42;4.90;;;1.80;;
75189;SDS011;69198;44.694;37.790;2023-07-30T05:54:46;4.40;;;1.60;;
75189;SDS011;69198;44.694;37.790;2023-07-30T05:55:47;5.57;;;1.70;;
75189;SDS011;69198;44.694;37.790;2023-07-30T05:56:48;6.20;;;1.80;;
75189;SDS011;69198;44.694;37.790;2023-07-30T05:57:50;4.88;;;2.13;;
75189;SDS011;69198;44.694;37.790;2023-07-30T05:58:56;5.13;;;1.92;;
75189;SDS011;69198;44.694;37.790;2023-07-30T05:59:57;4.85;;;1.80;;
75189;SDS011;69198;44.694;37.790;2023-07-30T06:01:12;5.75;;;1.80;;
75189;SDS011;69198;44.694;37.790;2023-07-30T06:02:13;6.28;;;1.90;;
75189;SDS011;69198;44.694;37.790;2023-07-30T06:03:14;6.38;;;2.00;;
75189;SDS011;69198;44.694;37.790;2023-07-30T06:04:15;5.33;;;1.80;;
75189;SDS011;69198;44.694;37.790;2023-07-30T06:05:16;6.47;;;1.70;;